Time;durP1;ratioP1;P1;durP2;ratioP2;P2;SDS_P1;SDS_P2;PMS_P1;PMS_P2;Temp;Humidity;BMP_temperature;BMP_pressure;BME280_temperature;BME280_humidity;BME280_pressure;Samples;Min_cycle;Max_cycle;Signal;HPM_P1;HPM_P2
2021/06/09 00:00:14;;;;;;;10.30;9.23;;;16.40;99.90;;;;;;5033955;28;20021;-78
2021/06/09 00:02:39;;;;;;;10.48;8.98;;;16.50;99.90;;;;;;5033833;28;20021;-78
2021/06/09 00:05:06;;;;;;;10.50;9.40;;;16.50;99.90;;;;;;5033267;28;20040;-78
2021/06/09 00:07:32;;;;;;;13.75;9.80;;;16.50;99.90;;;;;;5017494;28;20515;-78
2021/06/09 00:09:58;;;;;;;10.93;9.27;;;16.50;99.90;;;;;;5033822;28;20057;-78
2021/06/09 00:12:24;;;;;;;13.68;9.13;;;16.40;99.90;;;;;;5033749;28;20106;-78
2021/06/09 00:14:50;;;;;;;10.80;8.75;;;16.30;99.90;;;;;;5033953;28;20492;-78
2021/06/09 00:17:16;;;;;;;9.98;8.65;;;16.30;99.90;;;;;;5033567;28;20029;-78
2021/06/09 00:19:42;;;;;;;11.38;7.82;;;16.20;99.90;;;;;;5033556;28;20036;-78
2021/06/09 00:22:07;;;;;;;13.38;9.32;;;16.30;99.90;;;;;;5033937;28;20030;-78
2021/06/09 00:24:33;;;;;;;11.48;8.40;;;16.20;99.90;;;;;;5033527;28;20022;-78
2021/06/09 00:27:00;;;;;;;10.73;8.50;;;16.20;99.90;;;;;;5033464;28;20378;-78
2021/06/09 00:29:27;;;;;;;16.35;8.85;;;16.30;99.90;;;;;;5033436;28;20029;-78
2021/06/09 00:31:52;;;;;;;12.82;8.68;;;16.40;99.90;;;;;;5034649;28;20151;-78
2021/06/09 00:34:18;;;;;;;10.07;9.00;;;16.20;99.90;;;;;;5034295;28;20048;-78
2021/06/09 00:36:45;;;;;;;12.45;8.82;;;16.40;99.90;;;;;;5033176;28;20026;-77
2021/06/09 00:39:11;;;;;;;10.98;8.80;;;16.40;99.90;;;;;;5034453;28;20147;-77
2021/06/09 00:41:37;;;;;;;11.30;8.68;;;16.40;99.90;;;;;;5033139;28;20067;-78
2021/06/09 00:44:05;;;;;;;9.75;8.85;;;16.40;99.90;;;;;;5033114;28;20025;-78
2021/06/09 00:46:38;;;;;;;10.13;8.48;;;16.30;99.90;;;;;;5034353;28;20032;-78
2021/06/09 00:49:05;;;;;;;10.43;8.35;;;16.20;99.90;;;;;;5034325;28;20393;-78
2021/06/09 00:51:31;;;;;;;9.45;8.20;;;16.10;99.90;;;;;;5032977;28;20034;-78
2021/06/09 00:54:05;;;;;;;9.70;7.75;;;16.10;99.90;;;;;;5032934;28;20033;-77
2021/06/09 00:56:33;;;;;;;9.70;6.82;;;16.10;99.90;;;;;;5033003;28;20060;-78
2021/06/09 00:59:00;;;;;;;9.20;6.97;;;16.20;99.90;;;;;;5033266;28;20029;-77
2021/06/09 01:01:28;;;;;;;7.88;7.07;;;16.20;99.90;;;;;;5032783;28;20229;-77
2021/06/09 01:03:55;;;;;;;7.80;6.38;;;16.20;99.90;;;;;;5034000;28;20104;-77
2021/06/09 01:06:22;;;;;;;7.47;6.57;;;16.20;99.90;;;;;;5034001;28;20029;-77
2021/06/09 01:08:51;;;;;;;9.55;6.93;;;16.30;99.90;;;;;;5016453;28;20029;-77
2021/06/09 01:11:21;;;;;;;11.57;5.47;;;16.30;99.90;;;;;;5032582;28;20040;-78
2021/06/09 01:13:48;;;;;;;11.70;6.80;;;16.20;99.90;;;;;;5032768;28;20053;-77
2021/06/09 01:16:15;;;;;;;8.45;5.78;;;16.00;99.90;;;;;;5032795;28;20091;-77
2021/06/09 01:18:41;;;;;;;8.57;5.90;;;15.90;99.90;;;;;;5032507;28;20064;-78
2021/06/09 01:21:08;;;;;;;7.47;5.88;;;16.10;99.90;;;;;;5032474;28;20420;-77
2021/06/09 01:23:36;;;;;;;6.85;5.45;;;16.10;99.90;;;;;;5033068;28;20025;-78
2021/06/09 01:26:03;;;;;;;8.80;5.40;;;16.10;99.90;;;;;;5016150;28;20496;-78
2021/06/09 01:28:29;;;;;;;7.85;5.53;;;16.10;99.90;;;;;;5033855;28;20099;-78
2021/06/09 01:30:55;;;;;;;6.47;5.75;;;16.10;99.90;;;;;;5016079;28;20481;-77
2021/06/09 01:33:22;;;;;;;8.60;6.10;;;16.00;99.90;;;;;;5033559;28;20524;-78
2021/06/09 01:35:54;;;;;;;7.30;5.43;;;16.10;99.90;;;;;;5031846;28;20037;-78
2021/06/09 01:38:22;;;;;;;8.70;5.78;;;16.00;99.90;;;;;;5032193;28;20025;-78
2021/06/09 01:40:47;;;;;;;7.20;5.00;;;16.00;99.90;;;;;;5032176;28;20419;-77
2021/06/09 01:43:15;;;;;;;6.88;5.80;;;16.00;99.90;;;;;;5032115;28;20113;-78
2021/06/09 01:45:41;;;;;;;6.68;5.90;;;15.80;99.90;;;;;;5015974;28;20138;-78
2021/06/09 01:48:09;;;;;;;7.65;6.20;;;15.90;99.90;;;;;;5032130;28;20531;-77
2021/06/09 01:50:39;;;;;;;9.50;5.95;;;16.10;99.90;;;;;;5033296;28;20025;-78
2021/06/09 01:53:06;;;;;;;8.82;6.50;;;16.00;99.90;;;;;;5032084;28;20225;-77
2021/06/09 01:55:34;;;;;;;6.22;5.63;;;16.00;99.90;;;;;;5032034;28;20396;-77
2021/06/09 01:58:01;;;;;;;9.40;5.65;;;16.00;99.90;;;;;;5031978;28;20025;-77
2021/06/09 02:00:36;;;;;;;8.30;5.45;;;16.10;99.90;;;;;;5015795;28;20029;-77
2021/06/09 02:03:01;;;;;;;;;;;16.00;99.90;;;;;;5032429;28;20025;-77
2021/06/09 02:05:33;;;;;;;6.22;5.43;;;16.00;99.90;;;;;;5033242;28;20372;-78
2021/06/09 02:08:00;;;;;;;7.63;5.88;;;15.90;99.90;;;;;;5031918;28;20022;-77
2021/06/09 02:10:28;;;;;;;10.77;6.13;;;16.10;99.90;;;;;;5031803;28;20021;-78
2021/06/09 02:13:03;;;;;;;7.60;6.05;;;16.00;99.90;;;;;;5015273;28;20387;-77
2021/06/09 02:15:29;;;;;;;7.60;5.95;;;16.00;99.90;;;;;;5032160;28;20030;-78
2021/06/09 02:17:59;;;;;;;5.82;5.22;;;16.00;99.90;;;;;;5033268;28;20385;-78
2021/06/09 02:20:28;;;;;;;10.65;5.85;;;15.80;99.90;;;;;;5033366;28;20535;-78
2021/06/09 02:22:56;;;;;;;6.80;5.35;;;15.80;99.90;;;;;;5031447;28;20049;-78
2021/06/09 02:25:24;;;;;;;7.43;5.43;;;15.70;99.90;;;;;;5031713;28;20116;-77
2021/06/09 02:27:50;;;;;;;8.85;6.15;;;15.90;99.90;;;;;;5017580;28;20029;-77
2021/06/09 02:30:17;;;;;;;7.15;5.85;;;15.90;99.90;;;;;;5035638;28;20025;-77
2021/06/09 02:32:47;;;;;;;9.35;5.38;;;15.90;99.90;;;;;;5036848;28;20082;-77
2021/06/09 02:35:18;;;;;;;5.88;5.28;;;16.10;99.90;;;;;;5036832;28;20098;-77
2021/06/09 02:37:48;;;;;;;9.38;6.18;;;16.10;99.90;;;;;;5036727;28;20025;-78
2021/06/09 02:40:14;;;;;;;6.72;5.63;;;16.10;99.90;;;;;;5036716;28;20022;-77
2021/06/09 02:42:40;;;;;;;6.88;6.18;;;16.00;99.90;;;;;;5036630;28;20052;-78
2021/06/09 02:45:09;;;;;;;6.75;5.78;;;16.00;99.90;;;;;;5036381;28;20034;-78
2021/06/09 02:47:39;;;;;;;7.35;6.03;;;16.00;99.90;;;;;;5036865;28;20025;-78
2021/06/09 02:50:07;;;;;;;6.50;5.60;;;16.10;99.90;;;;;;5036795;28;20545;-77
2021/06/09 02:52:49;;;;;;;7.13;5.90;;;16.00;99.90;;;;;;5018727;28;20055;-78
2021/06/09 02:55:33;;;;;;;6.70;5.53;;;15.90;99.90;;;;;;5035209;28;20029;-78
2021/06/09 02:58:09;;;;;;;7.38;6.57;;;15.80;99.90;;;;;;5036934;28;20409;-78
2021/06/09 03:01:29;;;;;;;13.50;6.22;;;15.70;99.90;;;;;;5035087;28;20105;-77
2021/06/09 03:04:47;;;;;;;13.30;6.10;;;15.80;99.90;;;;;;4978780;28;20026;-78
2021/06/09 03:07:39;;;;;;;8.38;6.07;;;15.60;99.90;;;;;;5013670;28;20025;-78
2021/06/09 03:10:27;;;;;;;9.10;5.90;;;15.60;99.90;;;;;;5035990;28;20496;-78
2021/06/09 03:13:03;;;;;;;6.13;5.50;;;15.80;99.90;;;;;;5034817;28;20031;-78
2021/06/09 03:15:47;;;;;;;6.70;5.80;;;15.80;99.90;;;;;;5036134;28;20522;-77
2021/06/09 03:18:22;;;;;;;7.07;5.40;;;15.80;99.90;;;;;;5036500;28;20544;-77
2021/06/09 03:20:54;;;;;;;5.80;4.70;;;15.80;99.90;;;;;;5036280;28;20029;-77
2021/06/09 03:23:45;;;;;;;7.53;5.15;;;15.80;99.90;;;;;;5034675;28;20021;-77
2021/06/09 03:26:48;;;;;;;9.82;5.38;;;15.90;99.90;;;;;;5036208;28;20108;-77
2021/06/09 03:29:26;;;;;;;5.60;5.10;;;15.80;99.90;;;;;;5035808;28;20017;-77
2021/06/09 03:31:58;;;;;;;9.70;5.25;;;15.90;99.90;;;;;;5034565;28;20032;-77
2021/06/09 03:34:42;;;;;;;7.07;5.40;;;15.70;99.90;;;;;;5034064;28;20034;-78
2021/06/09 03:37:09;;;;;;;6.20;5.55;;;15.70;99.90;;;;;;5034398;28;20083;-78
2021/06/09 03:39:39;;;;;;;7.20;5.50;;;15.80;99.90;;;;;;5033556;28;20026;-77
2021/06/09 03:42:09;;;;;;;6.15;5.55;;;15.80;99.90;;;;;;5035145;28;20500;-78
2021/06/09 03:44:40;;;;;;;7.35;5.38;;;15.90;99.90;;;;;;5034304;28;20116;-77
2021/06/09 03:47:07;;;;;;;7.88;5.75;;;15.90;99.90;;;;;;5035574;28;20026;-77
2021/06/09 03:49:34;;;;;;;6.40;5.57;;;15.90;99.90;;;;;;5017892;28;20029;-77
2021/06/09 03:52:00;;;;;;;7.68;5.55;;;16.00;99.90;;;;;;5034137;28;20034;-78
2021/06/09 03:54:30;;;;;;;9.48;5.57;;;16.00;99.90;;;;;;5034238;28;20488;-77
2021/06/09 03:56:57;;;;;;;7.45;5.55;;;16.00;99.90;;;;;;5035241;28;20061;-77
2021/06/09 03:59:24;;;;;;;10.85;5.70;;;16.00;99.90;;;;;;5034041;28;20509;-77
2021/06/09 04:01:52;;;;;;;7.90;6.10;;;15.80;99.90;;;;;;5034052;28;20017;-77
2021/06/09 04:04:20;;;;;;;9.15;6.28;;;15.90;99.90;;;;;;5035208;28;20357;-77
2021/06/09 04:06:50;;;;;;;7.95;5.90;;;16.00;99.90;;;;;;5033837;28;20393;-77
2021/06/09 04:09:19;;;;;;;8.07;5.63;;;16.10;99.90;;;;;;5017780;28;20030;-77
2021/06/09 04:11:52;;;;;;;7.82;5.40;;;16.20;99.90;;;;;;5035057;28;20037;-77
2021/06/09 04:14:21;;;;;;;6.07;5.45;;;16.20;99.90;;;;;;5035592;28;20025;-77
2021/06/09 04:16:48;;;;;;;7.43;5.50;;;16.10;99.90;;;;;;5034884;28;20393;-77
2021/06/09 04:19:15;;;;;;;8.05;6.47;;;16.00;99.90;;;;;;5033698;28;20123;-77
2021/06/09 04:21:41;;;;;;;7.90;5.82;;;16.10;99.90;;;;;;5033686;28;20393;-77
2021/06/09 04:24:07;;;;;;;8.73;6.03;;;16.00;99.90;;;;;;5034521;28;20036;-77
2021/06/09 04:26:34;;;;;;;6.70;6.10;;;16.10;99.90;;;;;;5033481;28;20037;-78
2021/06/09 04:29:01;;;;;;;11.35;5.80;;;16.00;99.90;;;;;;5034698;28;20029;-77
2021/06/09 04:31:28;;;;;;;9.15;5.93;;;16.00;99.90;;;;;;5033383;28;20393;-77
2021/06/09 04:33:57;;;;;;;7.22;6.43;;;16.10;99.90;;;;;;5016796;28;20075;-78
2021/06/09 04:36:24;;;;;;;8.88;6.93;;;16.00;99.90;;;;;;5034328;28;20052;-77
2021/06/09 04:38:50;;;;;;;7.90;6.40;;;16.00;99.90;;;;;;5033260;28;20036;-77
2021/06/09 04:41:16;;;;;;;9.98;6.10;;;16.20;99.90;;;;;;5033184;28;20104;-77
2021/06/09 04:43:43;;;;;;;8.93;6.03;;;16.20;99.90;;;;;;5034675;28;20099;-78
2021/06/09 04:46:09;;;;;;;8.68;6.90;;;16.20;99.90;;;;;;5034212;28;20473;-77
2021/06/09 04:48:35;;;;;;;9.38;6.68;;;16.00;99.90;;;;;;5034358;28;20028;-77
2021/06/09 04:51:01;;;;;;;8.00;6.30;;;16.00;99.90;;;;;;5032866;28;20025;-77
2021/06/09 04:53:27;;;;;;;9.23;6.53;;;16.10;99.90;;;;;;5034233;28;20040;-77
2021/06/09 04:55:57;;;;;;;8.88;6.78;;;16.20;99.90;;;;;;5032282;28;20029;-78
2021/06/09 04:58:25;;;;;;;8.18;6.43;;;16.20;99.90;;;;;;5035293;28;20469;-77
2021/06/09 05:00:52;;;;;;;8.02;6.95;;;16.30;99.90;;;;;;5032808;28;20074;-78
2021/06/09 05:03:18;;;;;;;7.43;6.72;;;16.40;99.90;;;;;;5032812;28;20060;-77
2021/06/09 05:05:44;;;;;;;7.90;7.10;;;16.40;99.90;;;;;;5033017;28;20026;-77
2021/06/09 05:08:10;;;;;;;8.95;6.75;;;16.40;99.90;;;;;;5032719;28;20021;-78
2021/06/09 05:10:38;;;;;;;8.65;6.93;;;16.20;99.90;;;;;;5032895;28;20420;-78
2021/06/09 05:13:06;;;;;;;9.25;6.90;;;16.20;99.90;;;;;;5034139;28;20021;-78
2021/06/09 05:15:36;;;;;;;8.60;7.65;;;16.30;99.90;;;;;;5034090;28;20018;-78
2021/06/09 05:18:08;;;;;;;8.35;7.55;;;16.50;99.90;;;;;;5032484;28;20057;-78
2021/06/09 05:20:39;;;;;;;11.43;8.27;;;16.50;99.90;;;;;;5016268;28;20030;-78
2021/06/09 05:23:14;;;;;;;8.80;6.93;;;16.50;99.90;;;;;;5032118;28;20018;-78
2021/06/09 05:25:41;;;;;;;9.00;8.10;;;16.60;99.90;;;;;;5016395;28;20430;-78
2021/06/09 05:28:12;;;;;;;12.27;7.68;;;16.50;99.90;;;;;;5032447;28;20381;-78
2021/06/09 05:30:39;;;;;;;12.50;8.63;;;16.50;99.90;;;;;;5032323;28;20021;-78
2021/06/09 05:33:07;;;;;;;10.75;8.00;;;16.60;99.90;;;;;;5032362;28;20469;-78
2021/06/09 05:35:33;;;;;;;13.38;9.25;;;16.60;99.90;;;;;;5033287;28;20124;-78
2021/06/09 05:38:00;;;;;;;10.82;9.50;;;16.70;99.90;;;;;;5032176;28;20117;-78
2021/06/09 05:40:26;;;;;;;11.07;8.10;;;16.60;99.90;;;;;;5032255;28;20112;-78
2021/06/09 05:42:53;;;;;;;11.45;9.10;;;16.70;99.90;;;;;;5032182;28;20108;-78
2021/06/09 05:45:30;;;;;;;10.63;9.07;;;16.90;99.90;;;;;;5032174;28;20136;-78
2021/06/09 05:47:57;;;;;;;13.40;8.98;;;17.00;99.90;;;;;;5032101;28;20021;-78
2021/06/09 05:50:28;;;;;;;14.68;9.63;;;17.10;99.90;;;;;;5032100;28;20027;-78
2021/06/09 05:52:59;;;;;;;10.32;8.85;;;17.20;99.90;;;;;;5032118;28;20025;-78
2021/06/09 05:55:28;;;;;;;13.70;10.77;;;17.20;99.90;;;;;;5033342;28;20101;-78
2021/06/09 05:57:56;;;;;;;13.65;9.57;;;17.30;99.90;;;;;;5031936;28;20388;-78
2021/06/09 06:00:25;;;;;;;10.23;9.25;;;17.30;99.90;;;;;;5031997;28;20544;-78
2021/06/09 06:02:52;;;;;;;13.20;11.30;;;17.40;99.90;;;;;;5031393;28;20048;-78
2021/06/09 06:05:22;;;;;;;12.85;11.18;;;17.40;99.90;;;;;;5031935;28;20029;-78
2021/06/09 06:07:48;;;;;;;10.75;9.68;;;17.60;99.90;;;;;;5032181;28;20032;-78
2021/06/09 06:10:14;;;;;;;12.43;10.65;;;17.60;99.90;;;;;;5031880;28;20423;-78
2021/06/09 06:12:42;;;;;;;17.52;11.38;;;17.50;99.90;;;;;;5033149;28;20026;-78
2021/06/09 06:15:10;;;;;;;12.27;10.90;;;17.50;99.90;;;;;;5031868;28;20488;-78
2021/06/09 06:17:45;;;;;;;12.07;10.68;;;17.60;99.90;;;;;;5031775;28;20552;-78
2021/06/09 06:20:22;;;;;;;12.18;10.93;;;17.60;99.90;;;;;;5031854;28;20026;-78
2021/06/09 06:22:50;;;;;;;19.35;9.95;;;17.60;99.90;;;;;;5015588;28;20029;-78
2021/06/09 06:25:22;;;;;;;12.43;10.40;;;17.70;99.90;;;;;;5031726;28;20431;-78
2021/06/09 06:27:50;;;;;;;11.82;9.77;;;17.80;99.90;;;;;;5031758;28;20458;-78
2021/06/09 06:30:17;;;;;;;14.65;11.52;;;17.90;99.90;;;;;;5031890;28;20029;-79
2021/06/09 06:32:45;;;;;;;11.20;10.02;;;17.90;99.90;;;;;;5015125;28;20029;-78
2021/06/09 06:35:14;;;;;;;13.00;10.95;;;18.00;99.90;;;;;;5031405;28;20049;-78
2021/06/09 06:37:42;;;;;;;12.75;9.52;;;18.00;99.90;;;;;;5031294;28;20456;-78
2021/06/09 06:40:09;;;;;;;11.35;10.15;;;18.10;99.90;;;;;;5015173;28;20121;-78
2021/06/09 06:42:35;;;;;;;12.52;11.32;;;18.10;99.90;;;;;;5033130;28;20061;-79
2021/06/09 06:45:03;;;;;;;12.93;10.35;;;18.20;99.90;;;;;;5015238;28;20063;-78
2021/06/09 06:47:29;;;;;;;13.30;10.35;;;18.30;99.90;;;;;;5031475;28;20496;-78
2021/06/09 06:49:57;;;;;;;10.30;9.38;;;18.40;99.90;;;;;;5031233;28;20108;-78
2021/06/09 06:52:28;;;;;;;16.48;10.30;;;18.50;99.90;;;;;;5031420;28;20117;-78
2021/06/09 06:55:01;;;;;;;14.05;10.93;;;18.60;99.90;;;;;;5031523;28;20029;-78
2021/06/09 06:57:30;;;;;;;10.98;8.98;;;18.80;99.90;;;;;;5029110;28;20040;-78
2021/06/09 06:59:58;;;;;;;15.60;10.90;;;18.90;99.90;;;;;;5031380;28;20032;-79
2021/06/09 07:02:25;;;;;;;12.57;11.25;;;18.90;99.90;;;;;;5032665;28;20026;-78
2021/06/09 07:04:51;;;;;;;12.55;11.13;;;18.90;99.90;;;;;;5031389;28;20021;-80
2021/06/09 07:07:17;;;;;;;15.48;10.40;;;19.00;99.90;;;;;;5032582;28;20040;-78
2021/06/09 07:09:44;;;;;;;16.20;10.75;;;19.10;99.90;;;;;;5031357;28;20034;-78
2021/06/09 07:12:10;;;;;;;12.23;10.93;;;19.20;99.90;;;;;;5032637;28;20393;-78
2021/06/09 07:14:36;;;;;;;11.50;10.07;;;19.40;99.90;;;;;;5032920;28;20033;-78
2021/06/09 07:17:02;;;;;;;11.77;10.00;;;19.50;99.90;;;;;;5034880;28;20049;-78
2021/06/09 07:19:29;;;;;;;11.80;9.95;;;19.50;99.90;;;;;;5036029;28;20096;-78
2021/06/09 07:21:55;;;;;;;12.02;9.80;;;19.70;99.90;;;;;;5036014;28;20021;-78
2021/06/09 07:24:21;;;;;;;13.40;10.75;;;19.80;99.90;;;;;;5036270;28;20381;-78
2021/06/09 07:26:48;;;;;;;14.30;10.80;;;19.90;99.90;;;;;;5035935;28;20022;-78
2021/06/09 07:29:20;;;;;;;17.20;10.02;;;19.80;99.90;;;;;;5034612;28;20025;-78
2021/06/09 07:31:46;;;;;;;13.82;11.55;;;19.90;99.90;;;;;;5034571;28;20037;-78
2021/06/09 07:34:14;;;;;;;13.55;11.32;;;20.00;99.90;;;;;;5034258;28;20029;-78
2021/06/09 07:36:58;;;;;;;14.15;10.90;;;20.20;99.90;;;;;;5034432;28;20060;-78
2021/06/09 07:39:33;;;;;;;10.50;9.50;;;20.20;99.90;;;;;;5034501;28;20025;-78
2021/06/09 07:42:00;;;;;;;;;;;20.30;99.90;;;;;;5034870;28;20025;-78
2021/06/09 07:44:28;;;;;;;12.93;11.02;;;20.30;99.90;;;;;;5035646;28;20301;-78
2021/06/09 07:46:55;;;;;;;13.55;11.02;;;20.40;99.90;;;;;;5034253;28;20139;-78
2021/06/09 07:49:22;;;;;;;12.63;11.32;;;20.60;99.90;;;;;;5034280;28;20036;-79
2021/06/09 07:51:48;;;;;;;13.27;10.75;;;20.60;99.90;;;;;;5034240;28;20120;-78
2021/06/09 07:54:15;;;;;;;12.10;9.77;;;20.50;99.90;;;;;;5034153;28;20037;-78
2021/06/09 07:56:43;;;;;;;11.63;9.73;;;20.50;99.90;;;;;;5033993;28;20083;-78
2021/06/09 07:59:12;;;;;;;11.38;10.02;;;20.60;99.90;;;;;;5034074;28;20061;-78
2021/06/09 08:01:41;;;;;;;13.18;10.57;;;20.60;99.90;;;;;;5035288;28;20025;-78
2021/06/09 08:04:10;;;;;;;12.73;11.00;;;20.70;99.90;;;;;;5033973;28;20025;-78
2021/06/09 08:06:35;;;;;;;10.52;9.35;;;20.90;99.90;;;;;;5035388;28;20021;-78
2021/06/09 08:09:03;;;;;;;14.48;9.93;;;21.00;99.90;;;;;;5033808;28;20025;-78
2021/06/09 08:11:30;;;;;;;10.55;9.40;;;21.20;99.90;;;;;;5033809;28;20022;-78
2021/06/09 08:13:56;;;;;;;10.88;9.77;;;21.50;99.90;;;;;;5033704;28;20033;-78
2021/06/09 08:16:22;;;;;;;11.18;9.80;;;21.60;99.90;;;;;;5033611;28;20211;-78
2021/06/09 08:18:48;;;;;;;11.45;9.75;;;21.70;99.90;;;;;;5033696;28;20381;-78
2021/06/09 08:21:16;;;;;;;12.63;10.48;;;21.60;99.90;;;;;;5033529;28;20026;-78
2021/06/09 08:23:46;;;;;;;12.73;10.40;;;21.50;99.90;;;;;;5035295;28;20029;-78
2021/06/09 08:26:13;;;;;;;11.43;9.40;;;21.50;99.90;;;;;;5033178;28;20029;-78
2021/06/09 08:28:42;;;;;;;10.07;8.88;;;21.60;99.90;;;;;;5033458;28;20064;-79
2021/06/09 08:31:13;;;;;;;11.93;9.65;;;21.90;99.90;;;;;;5034574;28;20029;-78
2021/06/09 08:33:41;;;;;;;12.32;9.75;;;21.90;99.90;;;;;;5034861;28;20129;-78
2021/06/09 08:36:08;;;;;;;10.23;8.75;;;21.90;99.90;;;;;;5033063;28;20041;-78
2021/06/09 08:38:36;;;;;;;11.57;9.10;;;22.00;99.90;;;;;;5034574;28;20013;-78
2021/06/09 08:41:03;;;;;;;10.57;9.13;;;21.90;99.90;;;;;;5034529;28;20029;-78
2021/06/09 08:43:32;;;;;;;10.75;9.65;;;22.00;99.90;;;;;;5034462;28;20028;-78
2021/06/09 08:45:57;;;;;;;14.90;10.63;;;21.80;99.90;;;;;;5033090;28;20499;-78
2021/06/09 08:48:24;;;;;;;12.75;9.40;;;21.60;99.90;;;;;;5033014;28;20018;-78
2021/06/09 08:50:50;;;;;;;12.55;9.98;;;21.70;99.90;;;;;;5034603;28;20036;-78
2021/06/09 08:53:20;;;;;;;10.40;9.30;;;21.90;99.90;;;;;;5034260;28;20030;-78
2021/06/09 08:55:47;;;;;;;11.23;9.75;;;21.70;99.90;;;;;;5034502;28;20084;-78
2021/06/09 08:58:14;;;;;;;14.63;9.82;;;21.60;99.90;;;;;;5034183;28;20539;-78
2021/06/09 09:00:42;;;;;;;14.13;11.00;;;21.50;99.90;;;;;;5034158;28;20045;-78
2021/06/09 09:03:08;;;;;;;13.40;9.65;;;21.60;99.90;;;;;;5032903;28;20021;-78
2021/06/09 09:05:34;;;;;;;12.73;11.43;;;21.40;99.90;;;;;;5034076;28;20028;-78
2021/06/09 09:08:02;;;;;;;11.95;10.48;;;21.40;99.90;;;;;;5032610;28;20112;-78
2021/06/09 09:10:28;;;;;;;14.25;10.75;;;21.40;99.90;;;;;;5032712;28;20022;-78
2021/06/09 09:12:54;;;;;;;12.90;9.73;;;21.40;99.90;;;;;;5033951;28;20017;-78
2021/06/09 09:15:20;;;;;;;11.07;9.98;;;21.50;99.90;;;;;;5032582;28;20036;-78
2021/06/09 09:17:49;;;;;;;13.40;10.45;;;21.90;99.90;;;;;;5032482;28;20056;-78
2021/06/09 09:20:19;;;;;;;13.35;11.32;;;22.20;99.90;;;;;;5033836;28;20017;-78
2021/06/09 09:22:45;;;;;;;14.77;11.48;;;22.20;99.90;;;;;;5032571;28;20464;-78
2021/06/09 09:25:17;;;;;;;14.68;11.68;;;22.30;99.90;;;;;;5032492;28;20017;-78
2021/06/09 09:28:02;;;;;;;21.27;11.68;;;22.00;99.90;;;;;;5032497;28;20031;-78
2021/06/09 09:30:30;;;;;;;13.32;10.68;;;22.00;99.90;;;;;;5032491;28;20552;-78
2021/06/09 09:33:06;;;;;;;12.25;10.50;;;21.90;99.90;;;;;;5033658;28;20385;-78
2021/06/09 09:35:38;;;;;;;12.90;10.80;;;21.90;99.90;;;;;;5032163;28;20531;-79
2021/06/09 09:38:16;;;;;;;12.05;9.70;;;21.90;99.90;;;;;;5033108;28;20033;-78
2021/06/09 09:41:12;;;;;;;12.18;10.25;;;21.90;99.90;;;;;;5032240;28;20022;-78
2021/06/09 09:43:47;;;;;;;11.25;10.07;;;21.80;99.90;;;;;;5033613;28;20021;-78
2021/06/09 09:46:19;;;;;;;12.88;10.25;;;21.90;99.90;;;;;;5033538;28;20429;-78
2021/06/09 09:49:07;;;;;;;11.43;9.25;;;22.00;99.90;;;;;;5032242;28;20545;-78
2021/06/09 09:51:48;;;;;;;11.82;7.95;;;22.00;99.90;;;;;;5032166;28;20033;-78
2021/06/09 09:54:14;;;;;;;9.70;8.40;;;22.10;99.90;;;;;;5032026;28;20035;-78
2021/06/09 09:56:41;;;;;;;13.50;8.38;;;22.10;99.90;;;;;;5033297;28;20057;-78
2021/06/09 09:59:08;;;;;;;11.05;8.80;;;22.00;99.90;;;;;;5033316;28;20101;-79
2021/06/09 10:01:50;;;;;;;8.38;7.55;;;22.20;99.90;;;;;;5031994;28;20028;-78
2021/06/09 10:04:18;;;;;;;10.77;7.90;;;22.90;99.90;;;;;;5032075;28;20494;-78
2021/06/09 10:06:45;;;;;;;11.10;8.15;;;23.50;99.90;;;;;;5031984;28;20057;-79
2021/06/09 10:09:20;;;;;;;8.57;7.78;;;23.60;99.90;;;;;;5033609;28;20017;-77
2021/06/09 10:11:53;;;;;;;9.30;7.95;;;24.10;99.90;;;;;;5031896;28;20036;-78
2021/06/09 10:14:19;;;;;;;10.20;8.00;;;24.40;99.90;;;;;;5031840;28;20389;-78
2021/06/09 10:16:47;;;;;;;9.82;7.72;;;24.80;99.90;;;;;;5033069;28;20033;-78
2021/06/09 10:19:13;;;;;;;9.75;7.88;;;25.00;99.90;;;;;;5031901;28;20484;-78
2021/06/09 10:22:03;;;;;;;14.35;7.57;;;24.90;99.90;;;;;;5033096;28;20497;-78
2021/06/09 10:24:30;;;;;;;8.70;7.78;;;25.00;99.90;;;;;;5033032;28;20049;-78
2021/06/09 10:27:03;;;;;;;9.73;7.47;;;24.30;99.90;;;;;;5031749;28;20032;-78
2021/06/09 10:29:30;;;;;;;13.23;7.90;;;24.30;99.90;;;;;;5031749;28;20028;-78
2021/06/09 10:32:01;;;;;;;9.13;8.23;;;24.60;99.90;;;;;;5031664;28;20080;-78
2021/06/09 10:34:29;;;;;;;13.57;8.07;;;24.30;99.90;;;;;;5032654;28;20046;-78
2021/06/09 10:36:58;;;;;;;11.75;7.68;;;23.90;99.90;;;;;;5031581;28;20034;-78
2021/06/09 10:39:27;;;;;;;9.75;7.30;;;23.60;99.90;;;;;;5031593;28;20451;-78
2021/06/09 10:41:56;;;;;;;8.68;7.18;;;23.40;99.90;;;;;;5031600;28;20025;-78
2021/06/09 10:44:24;;;;;;;9.40;7.38;;;23.20;99.90;;;;;;5031592;28;20488;-78
2021/06/09 10:46:54;;;;;;;10.68;7.30;;;23.20;99.90;;;;;;5031662;28;20032;-78
2021/06/09 10:49:22;;;;;;;10.15;7.07;;;23.00;99.90;;;;;;5034560;28;20025;-78
2021/06/09 10:51:51;;;;;;;10.90;6.93;;;23.00;99.90;;;;;;5035342;28;20025;-78
2021/06/09 10:54:20;;;;;;;8.88;6.80;;;23.20;99.90;;;;;;5036541;28;20029;-78
2021/06/09 10:56:48;;;;;;;9.48;6.15;;;23.60;99.90;;;;;;5035200;28;20025;-78
2021/06/09 10:59:27;;;;;;;6.93;6.25;;;24.20;99.90;;;;;;5036456;28;20063;-78
2021/06/09 11:01:57;;;;;;;10.52;6.88;;;24.70;99.90;;;;;;5036039;28;20124;-78
2021/06/09 11:04:25;;;;;;;7.65;6.82;;;24.70;99.90;;;;;;5035082;28;20492;-78
2021/06/09 11:06:53;;;;;;;8.60;6.15;;;25.40;99.90;;;;;;5036341;28;20057;-78
2021/06/09 11:09:20;;;;;;;7.30;6.13;;;26.30;99.90;;;;;;5034988;28;20022;-78
2021/06/09 11:12:08;;;;;;;6.65;5.82;;;26.80;99.90;;;;;;5035000;28;20107;-78
2021/06/09 11:14:56;;;;;;;6.85;6.13;;;26.10;99.90;;;;;;5035956;28;20080;-78
2021/06/09 11:17:36;;;;;;;8.88;6.55;;;25.30;99.90;;;;;;5036432;28;20033;-78
2021/06/09 11:20:26;;;;;;;7.03;6.30;;;24.80;99.90;;;;;;5034855;28;20523;-78
2021/06/09 11:22:59;;;;;;;11.45;6.53;;;24.90;99.90;;;;;;5031317;28;20034;-78
2021/06/09 11:25:40;;;;;;;7.22;6.53;;;24.90;99.90;;;;;;5036039;28;20170;-78
2021/06/09 11:28:09;;;;;;;10.55;6.60;;;24.50;99.90;;;;;;5036004;28;20381;-78
2021/06/09 11:31:01;;;;;;;7.35;6.40;;;24.90;99.90;;;;;;5034662;28;20116;-78
2021/06/09 11:33:38;;;;;;;8.43;6.22;;;25.70;99.90;;;;;;5034191;28;20033;-78
2021/06/09 11:36:12;;;;;;;7.32;5.63;;;26.50;99.90;;;;;;5035630;28;20041;-78
2021/06/09 11:38:43;;;;;;;6.72;4.72;;;26.60;99.90;;;;;;5035846;28;20022;-78
2021/06/09 11:41:14;;;;;;;5.35;4.85;;;26.00;99.90;;;;;;5035732;28;20036;-79
2021/06/09 11:43:46;;;;;;;5.53;4.50;;;25.30;99.90;;;;;;5036063;28;20376;-78
2021/06/09 11:46:17;;;;;;;5.82;5.30;;;25.40;99.90;;;;;;5034495;28;20116;-78
2021/06/09 11:49:11;;;;;;;7.30;5.43;;;25.20;99.90;;;;;;5034286;28;20029;-78
2021/06/09 11:51:46;;;;;;;10.90;6.00;;;24.90;99.90;;;;;;5034313;28;20017;-78
2021/06/09 11:54:31;;;;;;;7.38;5.82;;;25.70;99.90;;;;;;5034290;28;20451;-78
2021/06/09 11:57:03;;;;;;;6.75;6.05;;;25.50;99.90;;;;;;5034095;28;20087;-79
2021/06/09 11:59:37;;;;;;;8.20;6.18;;;25.30;99.90;;;;;;5033315;28;20108;-78
2021/06/09 12:02:09;;;;;;;8.35;5.68;;;25.40;99.90;;;;;;5034071;28;20214;-78
2021/06/09 12:04:40;;;;;;;7.07;6.38;;;25.20;99.90;;;;;;5035584;28;20075;-78
2021/06/09 12:07:33;;;;;;;8.48;6.75;;;24.90;99.90;;;;;;5033996;28;20112;-78
2021/06/09 12:10:02;;;;;;;7.60;6.90;;;24.50;99.90;;;;;;5034782;28;20063;-78
2021/06/09 12:12:32;;;;;;;9.02;6.85;;;23.90;99.90;;;;;;5033867;28;20028;-78
2021/06/09 12:15:07;;;;;;;7.78;6.95;;;23.70;99.90;;;;;;5035666;28;20096;-78
2021/06/09 12:17:36;;;;;;;8.82;6.60;;;23.70;99.90;;;;;;5034461;28;20033;-78
2021/06/09 12:20:17;;;;;;;10.45;6.60;;;23.30;99.90;;;;;;5033745;28;20116;-78
2021/06/09 12:22:48;;;;;;;7.95;7.15;;;23.10;99.90;;;;;;5035347;28;20025;-79
2021/06/09 12:25:19;;;;;;;7.43;5.95;;;23.00;99.90;;;;;;5033750;28;20487;-78
2021/06/09 12:28:01;;;;;;;10.48;6.20;;;22.90;99.90;;;;;;5035125;28;20013;-78
2021/06/09 12:30:27;;;;;;;11.02;6.03;;;22.90;99.90;;;;;;5034097;28;20033;-78
2021/06/09 12:32:53;;;;;;;6.20;5.60;;;23.00;99.90;;;;;;5035033;28;20512;-78
2021/06/09 12:35:21;;;;;;;7.57;5.90;;;23.00;99.90;;;;;;5034432;28;20049;-79
2021/06/09 12:38:08;;;;;;;10.30;6.30;;;23.10;99.90;;;;;;5033323;28;20033;-78
2021/06/09 12:40:42;;;;;;;17.92;8.27;;;23.10;99.90;;;;;;5033326;28;20025;-78
2021/06/09 12:43:12;;;;;;;11.25;8.40;;;23.20;99.90;;;;;;5033330;28;20025;-79
2021/06/09 12:45:41;;;;;;;13.93;8.93;;;23.00;99.90;;;;;;5034465;28;20032;-79
2021/06/09 12:48:26;;;;;;;11.57;7.95;;;23.00;99.90;;;;;;5034386;28;20033;-78
2021/06/09 12:50:57;;;;;;;19.08;7.78;;;24.00;99.90;;;;;;5034699;28;20100;-79
2021/06/09 12:53:28;;;;;;;11.43;7.07;;;23.90;99.90;;;;;;5034689;28;20087;-78
2021/06/09 12:56:09;;;;;;;11.50;6.63;;;23.60;99.90;;;;;;5034317;28;20104;-79